sensor_id;sensor_type;location;lat;lon;timestamp;pressure;altitude;pressure_sealevel;temperature;humidity
4834;BME280;12895;51.064;7.028;2023-07-31T00:01:57;100415.13;;;17.86;80.83
4834;BME280;12895;51.064;7.028;2023-07-31T00:04:43;100418.31;;;17.96;80.28
4834;BME280;12895;51.064;7.028;2023-07-31T00:07:29;100410.00;;;17.90;81.03
4834;BME280;12895;51.064;7.028;2023-07-31T00:10:14;100408.94;;;17.93;81.27
4834;BME280;12895;51.064;7.028;2023-07-31T00:12:59;100403.31;;;17.80;81.28
4834;BME280;12895;51.064;7.028;2023-07-31T00:15:44;100409.72;;;17.75;83.64
4834;BME280;12895;51.064;7.028;2023-07-31T00:18:29;100413.91;;;18.00;79.36
4834;BME280;12895;51.064;7.028;2023-07-31T00:21:15;100411.50;;;17.91;80.19
4834;BME280;12895;51.064;7.028;2023-07-31T00:24:01;100421.91;;;18.09;79.63
4834;BME280;12895;51.064;7.028;2023-07-31T00:26:46;100416.66;;;17.87;80.23
4834;BME280;12895;51.064;7.028;2023-07-31T00:29:31;100416.03;;;17.94;80.13
4834;BME280;12895;51.064;7.028;2023-07-31T00:32:16;100404.84;;;17.94;79.35
4834;BME280;12895;51.064;7.028;2023-07-31T00:35:01;100411.31;;;18.02;78.97
4834;BME280;12895;51.064;7.028;2023-07-31T00:37:50;100415.31;;;18.07;78.76
4834;BME280;12895;51.064;7.028;2023-07-31T00:40:35;100415.41;;;18.01;78.19
4834;BME280;12895;51.064;7.028;2023-07-31T00:43:22;100403.75;;;17.97;78.27
4834;BME280;12895;51.064;7.028;2023-07-31T00:46:08;100405.28;;;17.98;79.11
4834;BME280;12895;51.064;7.028;2023-07-31T00:48:54;100411.75;;;18.06;77.91
4834;BME280;12895;51.064;7.028;2023-07-31T00:51:39;100405.13;;;18.09;78.47
4834;BME280;12895;51.064;7.028;2023-07-31T00:54:25;100405.94;;;18.04;78.20
4834;BME280;12895;51.064;7.028;2023-07-31T00:57:11;100405.34;;;18.11;78.65
4834;BME280;12895;51.064;7.028;2023-07-31T00:59:56;100394.53;;;18.02;77.60
4834;BME280;12895;51.064;7.028;2023-07-31T01:02:41;100395.94;;;17.96;78.19
4834;BME280;12895;51.064;7.028;2023-07-31T01:05:29;100394.03;;;18.04;77.41
4834;BME280;12895;51.064;7.028;2023-07-31T01:08:20;100385.28;;;18.07;77.11
4834;BME280;12895;51.064;7.028;2023-07-31T01:11:09;100390.47;;;18.03;77.51
4834;BME280;12895;51.064;7.028;2023-07-31T01:13:59;100379.91;;;17.96;78.19
4834;BME280;12895;51.064;7.028;2023-07-31T01:16:44;100392.19;;;18.06;77.37
4834;BME280;12895;51.064;7.028;2023-07-31T01:19:29;100391.97;;;18.04;76.59
4834;BME280;12895;51.064;7.028;2023-07-31T01:22:18;100391.22;;;18.04;76.91
4834;BME280;12895;51.064;7.028;2023-07-31T01:25:10;100389.16;;;18.04;76.84
4834;BME280;12895;51.064;7.028;2023-07-31T01:28:02;100377.31;;;17.98;77.93
4834;BME280;12895;51.064;7.028;2023-07-31T01:30:48;100376.50;;;18.16;76.17
4834;BME280;12895;51.064;7.028;2023-07-31T01:33:34;100386.81;;;18.08;75.84
4834;BME280;12895;51.064;7.028;2023-07-31T01:36:20;100380.69;;;18.10;75.24
4834;BME280;12895;51.064;7.028;2023-07-31T01:39:05;100385.28;;;18.07;75.37
4834;BME280;12895;51.064;7.028;2023-07-31T01:41:51;100378.28;;;18.01;74.60
4834;BME280;12895;51.064;7.028;2023-07-31T01:44:37;100377.00;;;18.02;75.02
4834;BME280;12895;51.064;7.028;2023-07-31T01:47:23;100381.00;;;18.06;74.75
4834;BME280;12895;51.064;7.028;2023-07-31T01:50:09;100385.94;;;18.00;75.41
4834;BME280;12895;51.064;7.028;2023-07-31T01:52:54;100380.34;;;18.00;75.45
4834;BME280;12895;51.064;7.028;2023-07-31T01:55:39;100380.34;;;18.00;75.45
4834;BME280;12895;51.064;7.028;2023-07-31T01:58:26;100368.28;;;17.92;75.74
4834;BME280;12895;51.064;7.028;2023-07-31T02:01:12;100373.69;;;18.03;75.80
4834;BME280;12895;51.064;7.028;2023-07-31T02:03:57;100376.25;;;18.01;76.45
4834;BME280;12895;51.064;7.028;2023-07-31T02:06:43;100364.25;;;18.19;74.73
4834;BME280;12895;51.064;7.028;2023-07-31T02:09:28;100371.72;;;17.98;75.71
4834;BME280;12895;51.064;7.028;2023-07-31T02:12:13;100360.38;;;18.09;75.67
4834;BME280;12895;51.064;7.028;2023-07-31T02:14:59;100361.88;;;18.10;75.04
4834;BME280;12895;51.064;7.028;2023-07-31T02:17:45;100354.97;;;18.11;75.15
4834;BME280;12895;51.064;7.028;2023-07-31T02:20:32;100348.53;;;18.16;75.47
4834;BME280;12895;51.064;7.028;2023-07-31T02:23:20;100353.47;;;18.10;75.35
4834;BME280;12895;51.064;7.028;2023-07-31T02:26:05;100350.22;;;18.06;76.72
4834;BME280;12895;51.064;7.028;2023-07-31T02:28:50;100348.09;;;18.12;75.94
4834;BME280;12895;51.064;7.028;2023-07-31T02:31:35;100350.28;;;18.32;74.69
4834;BME280;12895;51.064;7.028;2023-07-31T02:34:21;100344.88;;;18.21;74.81
4834;BME280;12895;51.064;7.028;2023-07-31T02:37:07;100347.03;;;18.28;74.81
4834;BME280;12895;51.064;7.028;2023-07-31T02:39:52;100342.50;;;18.25;75.25
4834;BME280;12895;51.064;7.028;2023-07-31T02:42:37;100343.47;;;18.28;75.65
4834;BME280;12895;51.064;7.028;2023-07-31T02:45:23;100344.25;;;18.28;74.97
4834;BME280;12895;51.064;7.028;2023-07-31T02:48:08;100351.56;;;18.18;75.48
4834;BME280;12895;51.064;7.028;2023-07-31T02:50:54;100336.19;;;18.25;75.60
4834;BME280;12895;51.064;7.028;2023-07-31T02:53:40;100333.69;;;18.21;76.44
4834;BME280;12895;51.064;7.028;2023-07-31T02:56:25;100337.41;;;18.29;74.96
4834;BME280;12895;51.064;7.028;2023-07-31T02:59:10;100330.38;;;18.23;75.69
4834;BME280;12895;51.064;7.028;2023-07-31T03:01:55;100331.13;;;18.36;75.40
4834;BME280;12895;51.064;7.028;2023-07-31T03:04:40;100334.94;;;18.52;74.75
4834;BME280;12895;51.064;7.028;2023-07-31T03:07:26;100334.38;;;18.53;74.58
4834;BME280;12895;51.064;7.028;2023-07-31T03:10:12;100330.28;;;18.41;75.23
4834;BME280;12895;51.064;7.028;2023-07-31T03:12:57;100319.72;;;18.34;74.97
4834;BME280;12895;51.064;7.028;2023-07-31T03:15:42;100315.31;;;18.39;74.90
4834;BME280;12895;51.064;7.028;2023-07-31T03:18:27;100319.59;;;18.27;75.41
4834;BME280;12895;51.064;7.028;2023-07-31T03:21:12;100308.13;;;18.30;75.21
4834;BME280;12895;51.064;7.028;2023-07-31T03:23:59;100313.19;;;18.45;74.62
4834;BME280;12895;51.064;7.028;2023-07-31T03:26:44;100308.22;;;18.38;74.65
4834;BME280;12895;51.064;7.028;2023-07-31T03:29:29;100304.91;;;18.39;75.01
4834;BME280;12895;51.064;7.028;2023-07-31T03:32:15;100302.94;;;18.34;74.86
4834;BME280;12895;51.064;7.028;2023-07-31T03:35:00;100305.31;;;18.43;75.32
4834;BME280;12895;51.064;7.028;2023-07-31T03:37:45;100300.69;;;18.46;74.75
4834;BME280;12895;51.064;7.028;2023-07-31T03:40:32;100307.25;;;18.35;75.62
4834;BME280;12895;51.064;7.028;2023-07-31T03:43:17;100299.72;;;18.43;74.60
4834;BME280;12895;51.064;7.028;2023-07-31T03:46:02;100300.03;;;18.53;74.42
4834;BME280;12895;51.064;7.028;2023-07-31T03:48:48;100304.66;;;18.50;74.64
4834;BME280;12895;51.064;7.028;2023-07-31T03:51:34;100306.19;;;18.38;75.80
4834;BME280;12895;51.064;7.028;2023-07-31T03:54:19;100300.53;;;18.25;77.29
4834;BME280;12895;51.064;7.028;2023-07-31T03:57:06;100297.13;;;18.19;77.02
4834;BME280;12895;51.064;7.028;2023-07-31T03:59:51;100305.09;;;18.28;77.31
4834;BME280;12895;51.064;7.028;2023-07-31T04:02:36;100297.53;;;18.10;77.81
4834;BME280;12895;51.064;7.028;2023-07-31T04:05:22;100293.75;;;18.21;77.23
4834;BME280;12895;51.064;7.028;2023-07-31T04:08:07;100288.50;;;18.17;76.35
4834;BME280;12895;51.064;7.028;2023-07-31T04:10:52;100289.16;;;18.10;77.28
4834;BME280;12895;51.064;7.028;2023-07-31T04:13:38;100293.66;;;18.13;77.01
4834;BME280;12895;51.064;7.028;2023-07-31T04:16:24;100280.56;;;18.34;76.48
4834;BME280;12895;51.064;7.028;2023-07-31T04:19:09;100292.56;;;18.16;77.36
4834;BME280;12895;51.064;7.028;2023-07-31T04:21:56;100283.66;;;18.18;77.11
4834;BME280;12895;51.064;7.028;2023-07-31T04:24:41;100279.06;;;18.33;76.51
4834;BME280;12895;51.064;7.028;2023-07-31T04:27:26;100272.56;;;18.25;77.88
4834;BME280;12895;51.064;7.028;2023-07-31T04:30:13;100281.00;;;18.38;76.50
4834;BME280;12895;51.064;7.028;2023-07-31T04:32:58;100277.13;;;18.41;76.49
4834;BME280;12895;51.064;7.028;2023-07-31T04:35:48;100273.91;;;18.37;76.40
4834;BME280;12895;51.064;7.028;2023-07-31T04:38:35;100276.47;;;18.35;76.47
4834;BME280;12895;51.064;7.028;2023-07-31T04:41:20;100272.81;;;18.40;76.60
4834;BME280;12895;51.064;7.028;2023-07-31T04:44:05;100276.25;;;18.46;77.42
4834;BME280;12895;51.064;7.028;2023-07-31T04:46:52;100273.22;;;18.44;78.27
4834;BME280;12895;51.064;7.028;2023-07-31T04:49:37;100273.66;;;18.35;77.58
4834;BME280;12895;51.064;7.028;2023-07-31T04:52:22;100265.28;;;18.35;77.46
4834;BME280;12895;51.064;7.028;2023-07-31T04:55:08;100265.72;;;18.39;76.74
4834;BME280;12895;51.064;7.028;2023-07-31T04:57:53;100269.16;;;18.32;78.06
4834;BME280;12895;51.064;7.028;2023-07-31T05:00:38;100263.53;;;18.45;76.14
4834;BME280;12895;51.064;7.028;2023-07-31T05:03:25;100261.06;;;18.42;76.89
4834;BME280;12895;51.064;7.028;2023-07-31T05:06:10;100259.03;;;18.42;76.77
4834;BME280;12895;51.064;7.028;2023-07-31T05:08:56;100259.25;;;18.44;77.53
4834;BME280;12895;51.064;7.028;2023-07-31T05:11:41;100246.31;;;18.54;77.20
4834;BME280;12895;51.064;7.028;2023-07-31T05:14:27;100244.25;;;18.68;76.91
4834;BME280;12895;51.064;7.028;2023-07-31T05:17:12;100230.16;;;18.60;77.51
4834;BME280;12895;51.064;7.028;2023-07-31T05:19:58;100219.56;;;18.79;76.63
4834;BME280;12895;51.064;7.028;2023-07-31T05:22:43;100223.66;;;18.78;76.81
4834;BME280;12895;51.064;7.028;2023-07-31T05:25:28;100239.34;;;18.81;78.29
4834;BME280;12895;51.064;7.028;2023-07-31T05:28:13;100230.03;;;18.99;74.37
4834;BME280;12895;51.064;7.028;2023-07-31T05:30:59;100227.44;;;19.01;75.46
4834;BME280;12895;51.064;7.028;2023-07-31T05:33:44;100212.56;;;19.06;75.21
4834;BME280;12895;51.064;7.028;2023-07-31T05:36:31;100210.34;;;19.25;74.15
4834;BME280;12895;51.064;7.028;2023-07-31T05:39:16;100214.03;;;19.20;73.98
4834;BME280;12895;51.064;7.028;2023-07-31T05:42:04;100197.75;;;19.39;72.85
4834;BME280;12895;51.064;7.028;2023-07-31T05:44:49;100207.81;;;19.35;73.42
4834;BME280;12895;51.064;7.028;2023-07-31T05:47:37;100199.94;;;19.33;72.99
4834;BME280;12895;51.064;7.028;2023-07-31T05:50:23;100190.75;;;19.12;74.08
4834;BME280;12895;51.064;7.028;2023-07-31T05:53:09;100172.75;;;19.21;74.43
4834;BME280;12895;51.064;7.028;2023-07-31T05:55:54;100177.13;;;19.29;72.41
4834;BME280;12895;51.064;7.028;2023-07-31T05:58:40;100183.81;;;19.26;71.65
4834;BME280;12895;51.064;7.028;2023-07-31T06:01:25;100178.41;;;19.28;71.88
4834;BME280;12895;51.064;7.028;2023-07-31T06:04:10;100184.75;;;19.08;73.18
4834;BME280;12895;51.064;7.028;2023-07-31T06:06:55;100187.94;;;19.25;73.01
4834;BME280;12895;51.064;7.028;2023-07-31T06:09:45;100191.81;;;19.22;73.10
4834;BME280;12895;51.064;7.028;2023-07-31T06:12:30;100195.41;;;18.89;76.41
4834;BME280;12895;51.064;7.028;2023-07-31T06:15:16;100206.53;;;18.82;77.37
4834;BME280;12895;51.064;7.028;2023-07-31T06:18:03;100206.22;;;18.72;78.51
4834;BME280;12895;51.064;7.028;2023-07-31T06:20:51;100196.81;;;18.49;80.64
4834;BME280;12895;51.064;7.028;2023-07-31T06:23:38;100198.69;;;18.34;81.82
4834;BME280;12895;51.064;7.028;2023-07-31T06:26:28;100193.16;;;18.41;81.11
4834;BME280;12895;51.064;7.028;2023-07-31T06:29:13;100194.91;;;18.18;83.41
4834;BME280;12895;51.064;7.028;2023-07-31T06:32:03;100197.47;;;18.16;83.69
4834;BME280;12895;51.064;7.028;2023-07-31T06:34:51;100189.31;;;18.18;83.64
4834;BME280;12895;51.064;7.028;2023-07-31T06:37:37;100186.09;;;18.14;83.68
4834;BME280;12895;51.064;7.028;2023-07-31T06:40:24;100195.31;;;18.22;83.51
4834;BME280;12895;51.064;7.028;2023-07-31T06:43:17;100187.13;;;18.50;82.13
4834;BME280;12895;51.064;7.028;2023-07-31T06:46:04;100187.22;;;18.58;82.24
4834;BME280;12895;51.064;7.028;2023-07-31T06:48:50;100183.22;;;18.66;79.58
4834;BME280;12895;51.064;7.028;2023-07-31T06:51:35;100177.84;;;18.55;82.57
4834;BME280;12895;51.064;7.028;2023-07-31T06:54:22;100179.69;;;18.53;82.87
4834;BME280;12895;51.064;7.028;2023-07-31T06:57:09;100181.69;;;18.65;81.45
4834;BME280;12895;51.064;7.028;2023-07-31T06:59:56;100176.53;;;18.69;81.66
4834;BME280;12895;51.064;7.028;2023-07-31T07:02:41;100184.47;;;18.65;82.02
4834;BME280;12895;51.064;7.028;2023-07-31T07:05:28;100183.28;;;18.74;81.26
4834;BME280;12895;51.064;7.028;2023-07-31T07:08:14;100189.50;;;18.80;81.44
4834;BME280;12895;51.064;7.028;2023-07-31T07:11:01;100179.53;;;18.71;82.42
4834;BME280;12895;51.064;7.028;2023-07-31T07:13:46;100180.56;;;18.81;81.60
4834;BME280;12895;51.064;7.028;2023-07-31T07:16:36;100176.78;;;18.79;81.31
4834;BME280;12895;51.064;7.028;2023-07-31T07:19:21;100177.69;;;18.74;80.19
4834;BME280;12895;51.064;7.028;2023-07-31T07:22:07;100171.53;;;18.75;81.08
4834;BME280;12895;51.064;7.028;2023-07-31T07:24:53;100166.34;;;18.79;81.26
4834;BME280;12895;51.064;7.028;2023-07-31T07:27:42;100166.56;;;18.81;82.21
4834;BME280;12895;51.064;7.028;2023-07-31T07:30:27;100173.78;;;18.77;83.00
4834;BME280;12895;51.064;7.028;2023-07-31T07:33:14;100177.03;;;18.81;81.79
4834;BME280;12895;51.064;7.028;2023-07-31T07:36:00;100178.69;;;18.63;82.78
4834;BME280;12895;51.064;7.028;2023-07-31T07:38:45;100161.84;;;18.76;81.50
4834;BME280;12895;51.064;7.028;2023-07-31T07:41:30;100177.63;;;18.66;81.53
4834;BME280;12895;51.064;7.028;2023-07-31T07:44:15;100189.03;;;18.55;83.50
4834;BME280;12895;51.064;7.028;2023-07-31T07:47:00;100184.31;;;18.50;84.26
4834;BME280;12895;51.064;7.028;2023-07-31T07:49:47;100184.38;;;18.37;85.12
4834;BME280;12895;51.064;7.028;2023-07-31T07:52:32;100179.31;;;18.36;85.67
4834;BME280;12895;51.064;7.028;2023-07-31T07:55:19;100175.41;;;18.39;84.95
4834;BME280;12895;51.064;7.028;2023-07-31T07:58:08;100182.72;;;18.42;85.78
4834;BME280;12895;51.064;7.028;2023-07-31T08:00:53;100180.81;;;18.70;83.65
4834;BME280;12895;51.064;7.028;2023-07-31T08:03:38;100167.22;;;18.74;83.44
4834;BME280;12895;51.064;7.028;2023-07-31T08:06:25;100170.84;;;18.82;81.20
4834;BME280;12895;51.064;7.028;2023-07-31T08:09:10;100175.94;;;18.84;81.89
4834;BME280;12895;51.064;7.028;2023-07-31T08:11:55;100181.91;;;18.67;84.90
4834;BME280;12895;51.064;7.028;2023-07-31T08:14:47;100182.53;;;18.73;82.74
4834;BME280;12895;51.064;7.028;2023-07-31T08:17:33;100176.66;;;18.84;81.98
4834;BME280;12895;51.064;7.028;2023-07-31T08:20:24;100172.81;;;18.74;82.90
4834;BME280;12895;51.064;7.028;2023-07-31T08:23:13;100177.63;;;18.66;80.68
4834;BME280;12895;51.064;7.028;2023-07-31T08:25:58;100158.09;;;18.94;81.16
4834;BME280;12895;51.064;7.028;2023-07-31T08:28:48;100162.72;;;18.71;79.61
4834;BME280;12895;51.064;7.028;2023-07-31T08:31:33;100153.47;;;18.76;80.55
4834;BME280;12895;51.064;7.028;2023-07-31T08:34:20;100143.31;;;18.73;80.09
4834;BME280;12895;51.064;7.028;2023-07-31T08:37:05;100136.50;;;18.61;80.61
4834;BME280;12895;51.064;7.028;2023-07-31T08:39:54;100136.22;;;18.72;79.31
4834;BME280;12895;51.064;7.028;2023-07-31T08:42:45;100134.78;;;18.58;80.39
4834;BME280;12895;51.064;7.028;2023-07-31T08:45:31;100126.41;;;18.58;82.67
4834;BME280;12895;51.064;7.028;2023-07-31T08:48:20;100130.91;;;18.61;82.14
4834;BME280;12895;51.064;7.028;2023-07-31T08:51:07;100126.81;;;18.62;83.65
4834;BME280;12895;51.064;7.028;2023-07-31T08:53:52;100119.78;;;18.69;82.57
4834;BME280;12895;51.064;7.028;2023-07-31T08:56:44;100128.19;;;18.89;81.43
4834;BME280;12895;51.064;7.028;2023-07-31T08:59:32;100125.78;;;18.93;81.84
4834;BME280;12895;51.064;7.028;2023-07-31T09:02:20;100125.84;;;18.80;82.37
4834;BME280;12895;51.064;7.028;2023-07-31T09:05:09;100130.16;;;19.02;81.34
4834;BME280;12895;51.064;7.028;2023-07-31T09:07:56;100129.00;;;18.97;81.30
4834;BME280;12895;51.064;7.028;2023-07-31T09:10:44;100136.44;;;19.15;80.42
4834;BME280;12895;51.064;7.028;2023-07-31T09:13:34;100140.59;;;19.01;80.50
4834;BME280;12895;51.064;7.028;2023-07-31T09:16:28;100145.38;;;18.93;81.39
4834;BME280;12895;51.064;7.028;2023-07-31T09:19:16;100134.63;;;18.97;82.24
4834;BME280;12895;51.064;7.028;2023-07-31T09:22:11;100136.50;;;19.02;77.08
4834;BME280;12895;51.064;7.028;2023-07-31T09:24:57;100120.53;;;19.10;80.08
4834;BME280;12895;51.064;7.028;2023-07-31T09:27:49;100140.06;;;19.23;77.82
4834;BME280;12895;51.064;7.028;2023-07-31T09:30:46;100153.16;;;19.21;74.50
4834;BME280;12895;51.064;7.028;2023-07-31T09:33:34;100136.19;;;19.26;75.72
4834;BME280;12895;51.064;7.028;2023-07-31T09:36:41;100129.28;;;19.27;73.68
4834;BME280;12895;51.064;7.028;2023-07-31T09:39:29;100124.16;;;18.98;74.70
4834;BME280;12895;51.064;7.028;2023-07-31T09:42:24;100115.59;;;19.03;74.67
4834;BME280;12895;51.064;7.028;2023-07-31T09:45:09;100108.22;;;19.13;77.74
4834;BME280;12895;51.064;7.028;2023-07-31T09:47:56;100108.56;;;19.30;79.04
4834;BME280;12895;51.064;7.028;2023-07-31T09:50:42;100109.88;;;19.29;79.30
4834;BME280;12895;51.064;7.028;2023-07-31T09:53:28;100103.97;;;19.40;78.03
4834;BME280;12895;51.064;7.028;2023-07-31T09:56:13;100106.19;;;19.34;78.66
4834;BME280;12895;51.064;7.028;2023-07-31T09:58:59;100103.28;;;19.47;78.56
4834;BME280;12895;51.064;7.028;2023-07-31T10:01:45;100107.88;;;19.65;77.64
4834;BME280;12895;51.064;7.028;2023-07-31T10:04:32;100100.44;;;19.75;78.51
4834;BME280;12895;51.064;7.028;2023-07-31T10:07:18;100092.78;;;19.75;78.44
4834;BME280;12895;51.064;7.028;2023-07-31T10:10:05;100096.25;;;19.61;78.92
4834;BME280;12895;51.064;7.028;2023-07-31T10:12:52;100089.94;;;19.68;78.56
4834;BME280;12895;51.064;7.028;2023-07-31T10:15:37;100085.50;;;19.80;79.29
4834;BME280;12895;51.064;7.028;2023-07-31T10:18:26;100091.56;;;19.91;77.90
4834;BME280;12895;51.064;7.028;2023-07-31T10:21:13;100086.28;;;19.88;77.50
4834;BME280;12895;51.064;7.028;2023-07-31T10:23:58;100088.53;;;19.82;78.37
4834;BME280;12895;51.064;7.028;2023-07-31T10:26:44;100085.31;;;19.78;78.88
4834;BME280;12895;51.064;7.028;2023-07-31T10:29:29;100094.88;;;19.82;78.00
4834;BME280;12895;51.064;7.028;2023-07-31T10:32:15;100087.75;;;19.74;78.94
4834;BME280;12895;51.064;7.028;2023-07-31T10:35:01;100096.78;;;19.87;77.59
4834;BME280;12895;51.064;7.028;2023-07-31T10:37:49;100113.63;;;19.95;76.05
4834;BME280;12895;51.064;7.028;2023-07-31T10:40:34;100104.63;;;19.89;74.18
4834;BME280;12895;51.064;7.028;2023-07-31T10:43:25;100095.75;;;19.70;75.34
4834;BME280;12895;51.064;7.028;2023-07-31T10:46:12;100087.25;;;19.55;76.04
4834;BME280;12895;51.064;7.028;2023-07-31T10:48:57;100084.09;;;19.94;73.12
4834;BME280;12895;51.064;7.028;2023-07-31T10:51:43;100085.94;;;19.91;73.25
4834;BME280;12895;51.064;7.028;2023-07-31T11:02:44;100079.34;;;20.17;73.86
4834;BME280;12895;51.064;7.028;2023-07-31T11:09:22;100089.69;;;19.94;75.39
4834;BME280;12895;51.064;7.028;2023-07-31T11:12:29;100090.28;;;20.00;75.06
4834;BME280;12895;51.064;7.028;2023-07-31T11:15:22;100081.75;;;20.13;75.07
4834;BME280;12895;51.064;7.028;2023-07-31T11:18:24;100078.56;;;20.09;73.73
4834;BME280;12895;51.064;7.028;2023-07-31T11:21:17;100073.78;;;20.32;75.11
4834;BME280;12895;51.064;7.028;2023-07-31T11:24:03;100078.31;;;20.65;73.25
4834;BME280;12895;51.064;7.028;2023-07-31T11:26:57;100070.47;;;21.16;71.61
4834;BME280;12895;51.064;7.028;2023-07-31T11:29:44;100071.91;;;21.77;69.28
4834;BME280;12895;51.064;7.028;2023-07-31T11:32:29;100072.44;;;22.22;68.72
4834;BME280;12895;51.064;7.028;2023-07-31T11:35:17;100091.22;;;22.20;67.28
4834;BME280;12895;51.064;7.028;2023-07-31T11:38:02;100075.91;;;22.06;64.93
4834;BME280;12895;51.064;7.028;2023-07-31T11:40:47;100070.41;;;21.76;67.69
4834;BME280;12895;51.064;7.028;2023-07-31T11:43:32;100066.88;;;21.45;68.83
4834;BME280;12895;51.064;7.028;2023-07-31T11:46:20;100055.09;;;21.32;67.71
4834;BME280;12895;51.064;7.028;2023-07-31T11:49:05;100053.22;;;21.42;68.22
4834;BME280;12895;51.064;7.028;2023-07-31T11:51:52;100050.34;;;21.72;69.29
4834;BME280;12895;51.064;7.028;2023-07-31T11:54:39;100051.31;;;21.67;67.87
4834;BME280;12895;51.064;7.028;2023-07-31T11:57:25;100046.03;;;21.71;67.10
4834;BME280;12895;51.064;7.028;2023-07-31T12:00:10;100051.66;;;21.71;67.90
4834;BME280;12895;51.064;7.028;2023-07-31T12:02:57;100051.69;;;21.56;66.97
4834;BME280;12895;51.064;7.028;2023-07-31T12:05:42;100050.63;;;21.14;68.04
4834;BME280;12895;51.064;7.028;2023-07-31T12:08:29;100045.97;;;21.09;67.56
4834;BME280;12895;51.064;7.028;2023-07-31T12:11:14;100040.00;;;20.90;67.50
4834;BME280;12895;51.064;7.028;2023-07-31T12:14:03;100040.00;;;20.90;68.44
4834;BME280;12895;51.064;7.028;2023-07-31T12:16:52;100028.16;;;20.84;68.37
4834;BME280;12895;51.064;7.028;2023-07-31T12:19:38;100045.34;;;20.58;68.52
4834;BME280;12895;51.064;7.028;2023-07-31T12:22:23;100040.13;;;20.62;67.65
4834;BME280;12895;51.064;7.028;2023-07-31T12:25:14;100045.00;;;20.69;69.15
4834;BME280;12895;51.064;7.028;2023-07-31T12:28:07;100050.25;;;20.65;69.60
4834;BME280;12895;51.064;7.028;2023-07-31T12:30:56;100047.63;;;20.82;67.97
4834;BME280;12895;51.064;7.028;2023-07-31T12:33:51;100039.94;;;20.82;68.14
4834;BME280;12895;51.064;7.028;2023-07-31T12:37:01;100042.56;;;20.80;68.56
4834;BME280;12895;51.064;7.028;2023-07-31T12:39:46;100037.16;;;20.60;69.22
4834;BME280;12895;51.064;7.028;2023-07-31T12:42:33;100031.53;;;20.75;69.16
4834;BME280;12895;51.064;7.028;2023-07-31T12:45:18;100041.28;;;20.96;66.89
4834;BME280;12895;51.064;7.028;2023-07-31T12:48:05;100051.03;;;21.18;66.15
4834;BME280;12895;51.064;7.028;2023-07-31T12:50:50;100040.53;;;21.11;66.33
4834;BME280;12895;51.064;7.028;2023-07-31T12:53:35;100040.88;;;21.30;66.71
4834;BME280;12895;51.064;7.028;2023-07-31T12:56:23;100041.81;;;21.32;66.65
4834;BME280;12895;51.064;7.028;2023-07-31T12:59:10;100031.09;;;21.38;66.58
4834;BME280;12895;51.064;7.028;2023-07-31T13:01:55;100014.63;;;21.35;65.05
4834;BME280;12895;51.064;7.028;2023-07-31T13:04:40;100022.91;;;21.25;65.46
4834;BME280;12895;51.064;7.028;2023-07-31T13:07:26;100005.06;;;21.30;66.17
4834;BME280;12895;51.064;7.028;2023-07-31T13:10:11;100004.09;;;21.43;66.50
4834;BME280;12895;51.064;7.028;2023-07-31T13:12:57;100003.16;;;21.48;67.19
4834;BME280;12895;51.064;7.028;2023-07-31T13:15:43;99989.13;;;21.33;65.34
4834;BME280;12895;51.064;7.028;2023-07-31T13:18:28;99981.66;;;21.28;66.41
4834;BME280;12895;51.064;7.028;2023-07-31T13:21:14;99985.38;;;21.30;65.37
4834;BME280;12895;51.064;7.028;2023-07-31T13:23:59;99991.00;;;21.38;65.81
4834;BME280;12895;51.064;7.028;2023-07-31T13:26:44;99977.53;;;21.29;66.74
4834;BME280;12895;51.064;7.028;2023-07-31T13:29:29;99983.69;;;21.35;65.82
4834;BME280;12895;51.064;7.028;2023-07-31T13:32:17;99969.59;;;21.50;65.04
4834;BME280;12895;51.064;7.028;2023-07-31T13:35:03;99970.41;;;21.35;65.08
4834;BME280;12895;51.064;7.028;2023-07-31T13:37:48;99971.75;;;21.74;64.22
4834;BME280;12895;51.064;7.028;2023-07-31T13:40:33;99958.09;;;22.02;63.52
4834;BME280;12895;51.064;7.028;2023-07-31T13:43:18;99945.81;;;22.47;61.79
4834;BME280;12895;51.064;7.028;2023-07-31T13:46:03;99938.41;;;22.75;61.13
4834;BME280;12895;51.064;7.028;2023-07-31T13:48:51;99936.03;;;23.06;60.28
4834;BME280;12895;51.064;7.028;2023-07-31T13:51:38;99938.59;;;23.28;59.91
4834;BME280;12895;51.064;7.028;2023-07-31T13:54:24;99949.22;;;23.54;58.22
4834;BME280;12895;51.064;7.028;2023-07-31T13:57:10;99960.53;;;23.20;59.31
4834;BME280;12895;51.064;7.028;2023-07-31T13:59:55;99945.97;;;23.41;60.24
4834;BME280;12895;51.064;7.028;2023-07-31T14:02:41;99943.75;;;23.39;58.55
4834;BME280;12895;51.064;7.028;2023-07-31T14:05:32;99938.25;;;23.58;58.46
4834;BME280;12895;51.064;7.028;2023-07-31T14:08:21;99932.25;;;23.88;58.51
4834;BME280;12895;51.064;7.028;2023-07-31T14:11:07;99939.53;;;23.74;57.96
4834;BME280;12895;51.064;7.028;2023-07-31T14:14:19;99932.34;;;23.20;59.35
4834;BME280;12895;51.064;7.028;2023-07-31T14:17:16;99934.47;;;23.12;59.52
4834;BME280;12895;51.064;7.028;2023-07-31T14:20:02;99932.63;;;22.90;62.18
4834;BME280;12895;51.064;7.028;2023-07-31T14:22:48;99939.44;;;22.63;61.76
4834;BME280;12895;51.064;7.028;2023-07-31T14:25:33;99916.00;;;22.61;59.52
4834;BME280;12895;51.064;7.028;2023-07-31T14:28:18;99923.81;;;22.21;60.79
4834;BME280;12895;51.064;7.028;2023-07-31T14:31:03;99927.44;;;21.89;63.49
4834;BME280;12895;51.064;7.028;2023-07-31T14:33:49;99922.66;;;21.75;63.42
4834;BME280;12895;51.064;7.028;2023-07-31T14:36:34;99928.59;;;21.79;63.40
4834;BME280;12895;51.064;7.028;2023-07-31T14:39:20;99926.06;;;21.66;64.62
4834;BME280;12895;51.064;7.028;2023-07-31T14:42:05;99943.81;;;21.76;63.42
4834;BME280;12895;51.064;7.028;2023-07-31T14:44:51;99931.13;;;21.60;63.67
4834;BME280;12895;51.064;7.028;2023-07-31T14:47:36;99927.59;;;21.52;64.72
4834;BME280;12895;51.064;7.028;2023-07-31T14:50:21;99929.16;;;21.38;64.97
4834;BME280;12895;51.064;7.028;2023-07-31T14:53:07;99923.28;;;21.51;63.67
4834;BME280;12895;51.064;7.028;2023-07-31T14:55:54;99912.28;;;21.38;65.65
4834;BME280;12895;51.064;7.028;2023-07-31T14:58:41;99894.22;;;21.56;64.90